Time;durP1;ratioP1;P1;durP2;ratioP2;P2;SDS_P1;SDS_P2;PMS_P1;PMS_P2;Temp;Humidity;BMP_temperature;BMP_pressure;BME280_temperature;BME280_humidity;BME280_pressure;Samples;Min_cycle;Max_cycle;Signal;HPM_P1;HPM_P2
2021/06/24 00:02:20;;;;;;;8.70;4.03;;;;;;;19.72;51.99;102070.44;5014272;28;118773;-69
2021/06/24 00:04:47;;;;;;;7.15;3.92;;;;;;;19.68;51.98;102079.69;5016485;28;123353;-70
2021/06/24 00:07:15;;;;;;;5.53;3.38;;;;;;;19.67;52.16;102083.34;5019912;28;124060;-69
2021/06/24 00:09:42;;;;;;;6.88;4.03;;;;;;;19.65;52.09;102080.75;5026608;28;119054;-70
2021/06/24 00:12:09;;;;;;;7.40;3.80;;;;;;;19.62;52.15;102071.03;5016423;27;119337;-70
2021/06/24 00:14:37;;;;;;;6.00;3.83;;;;;;;19.62;52.32;102071.03;5015528;28;123501;-69
2021/06/24 00:17:04;;;;;;;8.00;4.07;;;;;;;19.62;52.47;102076.41;5016763;28;124653;-70
2021/06/24 00:19:31;;;;;;;6.88;3.63;;;;;;;19.63;52.35;102072.78;5014820;28;120227;-69
2021/06/24 00:21:58;;;;;;;7.22;3.78;;;;;;;19.62;52.28;102068.34;5023994;28;119701;-70
2021/06/24 00:24:25;;;;;;;6.05;3.85;;;;;;;19.62;52.25;102073.72;5019247;28;124681;-69
2021/06/24 00:26:53;;;;;;;6.88;3.92;;;;;;;19.60;52.27;102067.59;5018072;28;124244;-69
2021/06/24 00:29:20;;;;;;;7.18;4.18;;;;;;;19.58;52.33;102074.88;5014093;28;120546;-69
2021/06/24 00:31:49;;;;;;;6.82;3.80;;;;;;;19.55;52.34;102075.09;5020353;28;119869;-69
2021/06/24 00:34:16;;;;;;;7.78;3.95;;;;;;;19.54;52.39;102073.34;5021537;28;124586;-69
2021/06/24 00:36:43;;;;;;;9.68;4.30;;;;;;;19.53;52.47;102077.00;5020185;28;124233;-69
2021/06/24 00:39:11;;;;;;;10.15;4.47;;;;;;;19.53;52.51;102079.69;5020756;28;119342;-69
2021/06/24 00:41:40;;;;;;;12.35;4.20;;;;;;;19.54;52.67;102077.88;5017217;28;119693;-69
2021/06/24 00:44:08;;;;;;;8.27;4.18;;;;;;;19.54;52.49;102070.66;5017649;27;124766;-69
2021/06/24 00:46:35;;;;;;;8.23;3.90;;;;;;;19.52;52.38;102069.06;5019267;28;124137;-69
2021/06/24 00:49:04;;;;;;;8.88;4.32;;;;;;;19.50;52.63;102070.97;5023934;28;119551;-69
2021/06/24 00:51:31;;;;;;;8.65;3.83;;;;;;;19.48;52.48;102073.75;5023219;28;119144;-69
2021/06/24 00:54:00;;;;;;;7.38;4.05;;;;;;;19.48;52.47;102068.38;5014697;28;124427;-69
2021/06/24 00:56:32;;;;;;;8.70;4.38;;;;;;;19.47;52.72;102066.63;5016531;28;123299;-64
2021/06/24 00:59:02;;;;;;;9.02;4.95;;;;;;;19.44;52.60;102061.47;5011485;28;119661;-64
2021/06/24 01:01:31;;;;;;;8.80;3.80;;;;;;;19.40;52.70;102060.81;5028764;28;119277;-64
2021/06/24 01:03:59;;;;;;;10.05;4.10;;;;;;;19.38;52.59;102067.22;5018893;28;124350;-64
2021/06/24 01:06:26;;;;;;;9.18;4.15;;;;;;;19.35;52.59;102072.81;5021296;28;124747;-64
2021/06/24 01:08:53;;;;;;;8.35;4.18;;;;;;;19.33;52.74;102075.56;5015487;28;119468;-64
2021/06/24 01:11:20;;;;;;;9.55;4.55;;;;;;;19.33;52.77;102075.56;5015595;28;119547;-64
2021/06/24 01:13:48;;;;;;;10.48;4.18;;;;;;;19.32;52.82;102063.09;5020236;28;122894;-64
2021/06/24 01:16:17;;;;;;;8.40;4.43;;;;;;;19.31;52.92;102063.19;5011302;28;124217;-64
2021/06/24 01:18:45;;;;;;;7.43;4.47;;;;;;;19.31;52.78;102055.13;5012970;28;120404;-64
2021/06/24 01:21:13;;;;;;;8.35;4.63;;;;;;;19.30;52.91;102053.41;5020373;28;119210;-64
2021/06/24 01:23:43;;;;;;;9.07;4.35;;;;;;;19.26;52.74;102058.97;5020210;27;124990;-64
2021/06/24 01:26:13;;;;;;;8.48;4.10;;;;;;;19.25;53.07;102059.94;5011800;28;124519;-64
2021/06/24 01:28:41;;;;;;;8.82;4.60;;;;;;;19.23;53.19;102053.81;5012124;28;119421;-64
2021/06/24 01:31:10;;;;;;;7.55;4.57;;;;;;;19.22;52.89;102057.44;5014531;28;119170;-64
2021/06/24 01:33:37;;;;;;;9.65;4.03;;;;;;;19.19;52.93;102062.13;5019190;28;124823;-64
2021/06/24 01:36:07;;;;;;;8.85;3.92;;;;;;;19.17;53.02;102061.38;4997254;28;97039;-64
2021/06/24 01:38:42;;;;;;;8.68;4.40;;;;;;;19.15;52.99;102056.09;5017412;28;119201;-64
2021/06/24 01:41:30;;;;;;;8.80;4.05;;;;;;;19.16;53.00;102057.81;5018094;28;119208;-64
2021/06/24 01:44:02;;;;;;;9.15;4.57;;;;;;;19.16;53.01;102052.44;5018389;28;123131;-64
2021/06/24 01:46:30;;;;;;;7.32;4.38;;;;;;;19.12;53.07;102053.59;5012156;28;124007;-64
2021/06/24 01:48:57;;;;;;;9.38;4.38;;;;;;;19.10;52.99;102052.84;5016307;28;119330;-64
2021/06/24 01:51:26;;;;;;;7.20;4.22;;;;;;;19.07;53.17;102063.75;5017785;28;118998;-64
2021/06/24 01:53:53;;;;;;;9.75;4.93;;;;;;;19.05;53.30;102057.63;5011544;28;124404;-64
2021/06/24 01:56:23;;;;;;;8.00;4.53;;;;;;;19.04;53.36;102063.94;5015640;27;124242;-64
2021/06/24 01:58:53;;;;;;;7.82;4.38;;;;;;;19.02;53.12;102049.75;5016683;27;118640;-64
2021/06/24 02:01:29;;;;;;;8.27;4.95;;;;;;;19.02;53.08;102044.38;5011924;28;122029;-64
2021/06/24 02:04:05;;;;;;;8.75;4.90;;;;;;;18.99;53.14;102034.69;5017869;28;127095;-64
2021/06/24 02:06:32;;;;;;;8.75;4.40;;;;;;;18.97;53.32;102042.00;5015477;28;122772;-64
2021/06/24 02:09:10;;;;;;;9.00;4.68;;;;;;;18.96;53.48;102039.38;5018253;28;119565;-64
2021/06/24 02:11:54;;;;;;;10.05;4.68;;;;;;;18.94;53.36;102042.16;5017300;28;119093;-64
2021/06/24 02:14:24;;;;;;;10.93;4.70;;;;;;;18.95;53.43;102037.66;5015474;28;123300;-64
2021/06/24 02:16:53;;;;;;;6.68;4.78;;;;;;;18.95;53.48;102043.00;5016674;28;124297;-64
2021/06/24 02:19:21;;;;;;;12.13;4.68;;;;;;;18.92;53.36;102043.22;5025148;28;118754;-64
2021/06/24 02:22:04;;;;;;;8.38;4.32;;;;;;;18.92;53.69;102043.22;5019166;28;118409;-64
2021/06/24 02:24:37;;;;;;;8.93;4.65;;;;;;;18.94;53.64;102046.69;5018608;28;123327;-64
2021/06/24 02:27:06;;;;;;;8.38;4.75;;;;;;;18.92;53.57;102040.53;5017636;28;124164;-63
2021/06/24 02:29:53;;;;;;;5.50;4.15;;;;;;;18.90;53.53;102035.25;5015993;28;119919;-64
2021/06/24 02:32:21;;;;;;;11.63;4.65;;;;;;;18.88;53.65;102036.31;5017721;28;118686;-64
2021/06/24 02:34:59;;;;;;;7.63;4.82;;;;;;;18.84;53.67;102024.91;5014343;28;127495;-64
2021/06/24 02:37:43;;;;;;;8.63;4.70;;;;;;;18.82;53.74;102022.31;5006425;28;125711;-64
2021/06/24 02:40:29;;;;;;;7.68;4.53;;;;;;;18.79;53.73;102022.44;5017878;28;120145;-64
2021/06/24 02:42:58;;;;;;;7.80;4.85;;;;;;;18.78;53.79;102020.75;5015192;28;119273;-64
2021/06/24 02:45:30;;;;;;;8.15;5.30;;;;;;;18.77;53.73;102024.38;5008167;28;123246;-64
2021/06/24 02:47:57;;;;;;;10.35;5.47;;;;;;;18.77;53.91;102018.16;5010597;28;124368;-64
2021/06/24 02:50:25;;;;;;;8.77;4.80;;;;;;;18.75;53.88;102020.91;5018828;28;119668;-64
2021/06/24 02:52:59;;;;;;;7.88;5.13;;;;;;;18.75;54.00;102028.13;5015714;28;121272;-64
2021/06/24 02:55:30;;;;;;;7.43;4.60;;;;;;;18.73;53.87;102028.19;5014213;27;124260;-64
2021/06/24 02:58:01;;;;;;;10.35;5.43;;;;;;;18.70;53.98;102033.75;5013745;28;123005;-64
2021/06/24 03:00:48;;;;;;;9.70;5.07;;;;;;;18.70;53.92;102028.38;5015305;28;120103;-64
2021/06/24 03:03:32;;;;;;;7.47;5.15;;;;;;;18.69;54.00;102026.66;5012409;28;119359;-64
2021/06/24 03:06:07;;;;;;;9.68;5.10;;;;;;;18.67;54.09;102023.22;5012435;28;127356;-64
2021/06/24 03:08:35;;;;;;;8.75;4.97;;;;;;;18.66;54.10;102037.56;5023208;28;124363;-63
2021/06/24 03:11:03;;;;;;;9.07;5.18;;;;;;;18.64;54.16;102034.13;5021917;28;119741;-63
2021/06/24 03:13:33;;;;;;;10.10;5.20;;;;;;;18.61;54.06;102036.97;5023009;28;118959;-63
2021/06/24 03:16:04;;;;;;;7.63;4.88;;;;;;;18.57;54.43;102027.38;5012275;28;125347;-63
2021/06/24 03:18:31;;;;;;;8.32;5.28;;;;;;;18.55;54.32;102018.56;5019292;28;124805;-63
2021/06/24 03:21:01;;;;;;;7.93;5.20;;;;;;;18.51;54.47;102011.66;5021429;28;118467;-63
2021/06/24 03:23:28;;;;;;;9.05;5.63;;;;;;;18.48;54.75;102021.63;5020865;27;119233;-63
2021/06/24 03:25:55;;;;;;;12.73;5.70;;;;;;;18.46;54.69;102020.84;5025834;28;123391;-63
2021/06/24 03:28:24;;;;;;;8.32;5.47;;;;;;;18.44;54.84;102020.09;5027994;28;123420;-63
2021/06/24 03:31:00;;;;;;;10.13;5.63;;;;;;;18.43;54.82;102010.31;5024982;28;121736;-63
2021/06/24 03:33:31;;;;;;;10.90;5.60;;;;;;;18.41;54.97;102012.22;5019535;28;118388;-63
2021/06/24 03:35:59;;;;;;;9.60;5.63;;;;;;;18.41;55.32;102011.34;5026510;28;122940;-63
2021/06/24 03:38:26;;;;;;;7.47;5.78;;;;;;;18.41;55.14;102017.56;5023655;28;123590;-63
2021/06/24 03:40:55;;;;;;;9.27;5.45;;;;;;;18.40;55.25;102018.56;5019929;28;119683;-63
2021/06/24 03:43:23;;;;;;;10.00;5.68;;;;;;;18.40;55.49;102021.22;5027154;28;118054;-63
2021/06/24 03:45:51;;;;;;;11.38;5.63;;;;;;;18.39;55.54;102014.13;5026224;28;123774;-62
2021/06/24 03:48:19;;;;;;;8.65;5.70;;;;;;;18.37;55.57;102010.69;5024713;28;124298;-63
2021/06/24 03:50:52;;;;;;;8.88;5.72;;;;;;;18.34;55.50;102010.00;5021485;28;121522;-63
2021/06/24 03:53:20;;;;;;;7.38;5.75;;;;;;;18.30;55.61;102014.66;5008696;28;119517;-63
2021/06/24 03:55:48;;;;;;;8.88;5.30;;;;;;;18.26;55.72;102013.97;5016485;28;124022;-63
2021/06/24 03:58:26;;;;;;;10.10;5.60;;;;;;;18.25;55.70;102011.38;5021865;28;123408;-63
2021/06/24 04:00:54;;;;;;;10.13;5.50;;;;;;;18.24;55.81;102015.03;5020961;28;119445;-63
2021/06/24 04:03:21;;;;;;;9.93;5.75;;;;;;;18.24;55.99;102017.72;5038222;27;117930;-63
2021/06/24 04:05:56;;;;;;;10.18;5.72;;;;;;;18.24;55.87;102015.03;5021395;28;126538;-63
2021/06/24 04:08:24;;;;;;;9.27;5.55;;;;;;;18.22;55.68;102011.59;5026873;28;123595;-63
2021/06/24 04:11:07;;;;;;;10.18;6.00;;;;;;;18.18;56.02;102010.91;5027501;28;118462;-63
2021/06/24 04:13:39;;;;;;;8.85;5.45;;;;;;;18.15;55.91;102015.56;5027897;28;118357;-64
2021/06/24 04:16:26;;;;;;;9.55;5.75;;;;;;;18.13;55.98;102017.47;5024902;28;125645;-64
2021/06/24 04:18:55;;;;;;;10.40;5.30;;;;;;;18.13;56.22;102006.75;5024916;28;124000;-62
2021/06/24 04:21:23;;;;;;;9.52;5.03;;;;;;;18.12;56.50;102000.53;5019794;28;119426;-62
2021/06/24 04:23:50;;;;;;;8.60;5.70;;;;;;;18.13;56.63;102001.41;5022071;28;118558;-62
2021/06/24 04:26:18;;;;;;;11.27;5.90;;;;;;;18.15;56.56;102004.84;5019507;28;124278;-62
2021/06/24 04:28:46;;;;;;;9.60;6.00;;;;;;;18.16;56.66;102001.19;5021684;28;123993;-62
2021/06/24 04:31:14;;;;;;;9.85;5.60;;;;;;;18.18;56.60;102004.69;5024225;28;119715;-62
2021/06/24 04:33:41;;;;;;;9.23;4.93;;;;;;;18.19;56.52;102011.75;5021716;28;119850;-62
2021/06/24 04:36:31;;;;;;;9.55;5.55;;;;;;;18.20;56.59;102002.78;5020832;28;123536;-62
2021/06/24 04:39:10;;;;;;;10.00;6.05;;;;;;;18.21;56.75;102004.47;5021425;28;127038;-62
2021/06/24 04:41:39;;;;;;;10.40;5.72;;;;;;;18.21;56.71;102004.47;5020070;28;119885;-62
2021/06/24 04:44:08;;;;;;;10.32;5.95;;;;;;;18.21;56.94;101991.06;5022638;28;119898;-62
2021/06/24 04:46:37;;;;;;;8.48;5.25;;;;;;;18.20;56.69;101998.25;5017520;28;124299;-62
2021/06/24 04:49:07;;;;;;;8.20;5.80;;;;;;;18.22;56.87;102000.84;5016822;28;124450;-62
2021/06/24 04:51:53;;;;;;;8.27;5.75;;;;;;;18.22;56.84;102006.22;5017235;28;120030;-62
2021/06/24 04:54:33;;;;;;;9.55;5.80;;;;;;;18.21;56.78;101999.13;5019823;28;118306;-63
2021/06/24 04:57:02;;;;;;;10.07;6.20;;;;;;;18.21;56.85;101993.75;5023746;28;124781;-63
2021/06/24 04:59:48;;;;;;;9.35;5.47;;;;;;;18.21;56.92;101991.06;5022773;28;124740;-63
2021/06/24 05:02:25;;;;;;;7.53;5.45;;;;;;;18.22;56.85;102000.84;5016668;28;119672;-63
2021/06/24 05:05:29;;;;;;;10.02;5.90;;;;;;;18.22;56.85;101995.50;4994956;28;119569;-63
2021/06/24 05:07:57;;;;;;;11.13;5.97;;;;;;;18.22;56.67;101998.19;5023251;28;124242;-63
2021/06/24 05:10:24;;;;;;;9.57;5.60;;;;;;;18.23;56.80;101991.84;5019374;28;123746;-63
2021/06/24 05:12:52;;;;;;;12.13;5.95;;;;;;;18.23;56.91;101992.72;5016492;28;119396;-63
2021/06/24 05:15:19;;;;;;;8.25;5.68;;;;;;;18.23;56.78;101992.72;5013112;28;119403;-63
2021/06/24 05:17:51;;;;;;;10.90;5.18;;;;;;;18.24;56.86;101996.25;5021640;28;123220;-63
2021/06/24 05:20:18;;;;;;;9.50;5.82;;;;;;;18.24;57.13;101991.75;5018702;28;124019;-63
2021/06/24 05:22:45;;;;;;;11.60;5.53;;;;;;;18.26;56.87;101997.03;5021737;28;119189;-63
2021/06/24 05:25:13;;;;;;;10.70;6.20;;;;;;;18.29;56.85;102000.41;5023115;28;118561;-63
2021/06/24 05:27:40;;;;;;;9.25;5.75;;;;;;;18.32;56.94;101996.66;5018629;28;124219;-63
2021/06/24 05:30:08;;;;;;;8.60;6.18;;;;;;;18.35;57.08;102001.84;5019061;28;124678;-63
2021/06/24 05:32:35;;;;;;;8.95;5.82;;;;;;;18.39;56.95;102007.91;5022698;28;119298;-62
2021/06/24 05:35:02;;;;;;;9.57;5.32;;;;;;;18.41;57.10;102006.84;5014348;28;120248;-62
2021/06/24 05:37:30;;;;;;;9.18;6.32;;;;;;;18.44;57.17;101995.94;5014401;28;124033;-63
2021/06/24 05:39:57;;;;;;;11.95;6.07;;;;;;;18.48;56.97;102008.22;5020444;28;124305;-63
2021/06/24 05:42:24;;;;;;;10.18;6.45;;;;;;;18.51;56.95;101995.56;5026063;28;119502;-62
2021/06/24 05:44:51;;;;;;;10.48;6.63;;;;;;;18.55;56.96;101999.78;5022723;28;119090;-63
2021/06/24 05:47:18;;;;;;;11.18;6.22;;;;;;;18.56;56.99;101988.13;5019918;28;124108;-63
2021/06/24 05:49:46;;;;;;;8.02;5.88;;;;;;;18.59;56.96;101982.53;5018509;28;124122;-63
2021/06/24 05:52:13;;;;;;;10.23;6.32;;;;;;;18.63;57.00;101986.78;5013786;28;119252;-62
2021/06/24 05:54:40;;;;;;;9.45;5.90;;;;;;;18.65;56.92;101982.19;5015875;28;119482;-63
2021/06/24 05:57:08;;;;;;;9.63;6.45;;;;;;;18.67;56.61;101980.28;5018906;28;124251;-63
2021/06/24 05:59:35;;;;;;;7.35;5.65;;;;;;;18.67;56.81;101985.66;5021513;28;123953;-63
2021/06/24 06:02:03;;;;;;;10.82;6.10;;;;;;;18.68;56.69;101987.34;5020983;28;119454;-63
2021/06/24 06:04:30;;;;;;;8.82;5.65;;;;;;;18.70;56.82;101985.44;5025500;28;119306;-63
2021/06/24 06:06:57;;;;;;;9.48;5.68;;;;;;;18.71;56.51;101987.19;5021772;28;123048;-63
2021/06/24 06:09:24;;;;;;;9.40;5.45;;;;;;;18.72;56.73;101980.84;5010015;28;124178;-63
2021/06/24 06:11:53;;;;;;;11.90;6.28;;;;;;;18.74;56.72;101987.00;5014778;28;119518;-63
2021/06/24 06:14:20;;;;;;;9.00;5.80;;;;;;;18.75;56.51;101994.06;5021582;28;118154;-63
2021/06/24 06:16:47;;;;;;;11.27;6.35;;;;;;;18.77;56.57;101981.44;5019546;28;124244;-63
2021/06/24 06:19:14;;;;;;;9.45;5.65;;;;;;;18.78;56.63;101991.22;5017012;28;123750;-63
2021/06/24 06:21:41;;;;;;;12.68;5.85;;;;;;;18.80;56.39;101992.03;5019018;28;119034;-63
2021/06/24 06:24:08;;;;;;;7.63;5.57;;;;;;;18.82;56.44;101982.03;5012177;28;119778;-63
2021/06/24 06:26:36;;;;;;;9.10;5.57;;;;;;;18.86;56.31;101990.78;5014451;28;124106;-63
2021/06/24 06:29:05;;;;;;;8.88;5.65;;;;;;;18.88;56.54;101977.25;5014424;28;124002;-63
2021/06/24 06:31:36;;;;;;;10.68;5.80;;;;;;;18.88;55.94;101982.63;5020951;28;120261;-63
2021/06/24 06:34:03;;;;;;;9.27;5.82;;;;;;;18.86;56.21;101975.53;5017308;28;119027;-63
2021/06/24 06:36:30;;;;;;;12.07;5.75;;;;;;;18.90;56.07;101980.72;5015084;28;123920;-63
2021/06/24 06:38:58;;;;;;;9.65;5.50;;;;;;;18.91;56.12;101986.00;5012589;28;123749;-63
2021/06/24 06:41:25;;;;;;;9.70;5.82;;;;;;;18.92;56.02;101984.16;5017698;28;119841;-63
2021/06/24 06:43:53;;;;;;;7.70;5.53;;;;;;;18.94;55.82;101987.63;5018235;28;119692;-63
2021/06/24 06:46:20;;;;;;;9.70;5.13;;;;;;;18.94;55.90;101982.25;5024056;28;124424;-62
2021/06/24 06:48:47;;;;;;;7.47;5.63;;;;;;;18.96;55.93;101980.31;5020184;28;123898;-62
2021/06/24 06:51:15;;;;;;;10.10;5.45;;;;;;;18.97;55.93;101982.06;5023728;28;119487;-62
2021/06/24 06:53:42;;;;;;;9.93;5.60;;;;;;;18.99;55.94;101980.16;5015806;28;119097;-62
2021/06/24 06:56:10;;;;;;;10.68;5.80;;;;;;;19.03;56.00;101981.66;5018466;28;124854;-62
2021/06/24 06:58:37;;;;;;;9.93;6.10;;;;;;;19.10;55.93;101982.13;5024582;28;124344;-62
2021/06/24 07:01:04;;;;;;;8.95;5.38;;;;;;;19.13;55.78;101987.31;5018622;28;119620;-62
2021/06/24 07:03:32;;;;;;;10.90;6.22;;;;;;;19.15;55.59;101988.94;5029150;28;119755;-62
2021/06/24 07:05:59;;;;;;;8.70;5.68;;;;;;;19.14;55.55;101984.53;5017015;28;124109;-63
2021/06/24 07:08:26;;;;;;;10.93;5.65;;;;;;;19.15;55.75;101971.97;5022714;28;124429;-62
2021/06/24 07:10:57;;;;;;;8.18;5.88;;;;;;;19.18;55.96;101980.69;5020228;28;120633;-62
2021/06/24 07:13:24;;;;;;;8.43;5.28;;;;;;;19.21;55.67;101985.88;5020537;28;119894;-62
2021/06/24 07:15:56;;;;;;;8.65;5.32;;;;;;;19.24;55.50;101985.69;5018930;22;124366;-68
2021/06/24 07:18:24;;;;;;;11.38;5.55;;;;;;;19.29;55.49;101981.84;5040676;22;125817;-68
2021/06/24 07:20:54;;;;;;;9.02;5.45;;;;;;;19.31;55.50;101985.28;5007033;28;119586;-68
2021/06/24 07:23:21;;;;;;;7.68;5.47;;;;;;;19.32;55.35;101977.13;5004891;28;118894;-68
2021/06/24 07:25:48;;;;;;;9.57;6.05;;;;;;;19.35;55.38;101979.63;5002852;28;124217;-68
2021/06/24 07:28:15;;;;;;;10.02;5.63;;;;;;;19.38;55.20;101981.25;5008920;28;124191;-69
2021/06/24 07:30:42;;;;;;;8.93;5.40;;;;;;;19.41;55.07;101989.13;5003758;28;119969;-69
2021/06/24 07:33:10;;;;;;;7.93;4.80;;;;;;;19.43;55.28;101985.38;5019552;28;119264;-68
2021/06/24 07:35:37;;;;;;;8.00;4.90;;;;;;;19.45;55.22;101979.91;5006628;28;124128;-68
2021/06/24 07:38:04;;;;;;;10.05;5.35;;;;;;;19.46;55.04;101984.31;5002159;28;124196;-68
2021/06/24 07:40:31;;;;;;;7.43;5.00;;;;;;;19.47;55.09;101991.41;5000374;28;119291;-68
2021/06/24 07:43:03;;;;;;;7.15;5.13;;;;;;;19.49;54.89;101988.63;4982870;28;117933;-68
2021/06/24 07:45:31;;;;;;;8.65;5.45;;;;;;;19.51;54.73;101987.56;4995965;28;123281;-68
2021/06/24 07:47:58;;;;;;;8.20;5.05;;;;;;;19.53;54.70;101984.78;4985630;27;122827;-68
2021/06/24 07:50:26;;;;;;;9.55;5.53;;;;;;;19.54;54.84;101992.75;5008939;28;118651;-68
2021/06/24 07:52:55;;;;;;;7.60;4.97;;;;;;;19.60;54.81;101991.47;4999476;28;119665;-68
2021/06/24 07:55:22;;;;;;;10.00;5.07;;;;;;;19.62;54.55;101985.03;4996696;28;123936;-68
2021/06/24 07:57:50;;;;;;;11.52;5.43;;;;;;;19.65;54.65;101984.84;4995775;28;124731;-69
2021/06/24 08:00:17;;;;;;;7.75;4.90;;;;;;;19.68;54.41;101983.75;5008730;28;119211;-68
2021/06/24 08:02:44;;;;;;;8.30;5.07;;;;;;;19.71;54.37;101982.72;5004461;28;120066;-68
2021/06/24 08:05:17;;;;;;;6.78;4.53;;;;;;;19.73;54.33;101980.81;5001973;28;124793;-68
2021/06/24 08:07:45;;;;;;;7.18;5.22;;;;;;;19.76;54.44;101977.91;5002619;28;124093;-69
2021/06/24 08:10:13;;;;;;;8.65;5.43;;;;;;;19.80;54.66;101976.78;4999164;28;118174;-69
2021/06/24 08:12:42;;;;;;;9.57;4.65;;;;;;;19.86;54.37;101980.88;4996535;28;119082;-69
2021/06/24 08:15:11;;;;;;;8.07;4.30;;;;;;;19.87;54.09;101978.06;4996519;28;124617;-69
2021/06/24 08:17:39;;;;;;;8.05;4.40;;;;;;;19.88;53.97;101982.50;5014612;28;124666;-69
2021/06/24 08:20:09;;;;;;;10.38;4.53;;;;;;;19.92;53.56;101985.84;5004821;28;118763;-67
2021/06/24 08:22:36;;;;;;;9.18;4.40;;;;;;;19.94;53.38;101979.41;5016308;28;119057;-67
2021/06/24 08:25:05;;;;;;;6.45;4.60;;;;;;;19.93;53.19;101975.00;5013568;28;124852;-70
2021/06/24 08:27:34;;;;;;;7.15;4.50;;;;;;;19.94;53.42;101979.41;5008058;28;124706;-70
2021/06/24 08:30:03;;;;;;;6.80;4.68;;;;;;;19.95;53.42;101980.28;5015267;28;119139;-70
2021/06/24 08:32:30;;;;;;;8.68;4.32;;;;;;;19.96;53.20;101988.22;5010282;28;118922;-70
2021/06/24 08:34:59;;;;;;;5.35;4.15;;;;;;;19.97;52.99;101983.72;5003786;28;124122;-70
2021/06/24 08:37:26;;;;;;;8.63;4.40;;;;;;;19.96;52.86;101988.22;5010740;28;123838;-70
2021/06/24 08:39:53;;;;;;;5.50;3.95;;;;;;;19.94;52.60;101995.53;5004266;28;119573;-70
2021/06/24 08:42:21;;;;;;;8.13;4.80;;;;;;;19.91;52.59;101990.38;5014571;28;119079;-69
2021/06/24 08:44:48;;;;;;;6.47;4.28;;;;;;;19.88;52.66;101985.19;5009688;28;123103;-69
2021/06/24 08:47:16;;;;;;;10.07;5.20;;;;;;;19.88;52.81;101992.41;5008636;28;122953;-70
2021/06/24 08:49:44;;;;;;;6.07;4.57;;;;;;;19.88;52.72;101990.56;5009089;28;120389;-69
2021/06/24 08:52:11;;;;;;;9.10;4.65;;;;;;;19.87;52.73;102002.28;5011034;28;119783;-69
2021/06/24 08:54:39;;;;;;;11.23;5.38;;;;;;;19.88;52.79;102005.84;5006713;28;123969;-69
2021/06/24 08:57:06;;;;;;;9.48;4.93;;;;;;;19.87;52.81;102004.97;5006579;28;124066;-69
2021/06/24 08:59:33;;;;;;;7.53;5.13;;;;;;;19.86;52.79;102008.63;5006766;28;119566;-69
2021/06/24 09:02:01;;;;;;;8.77;5.55;;;;;;;19.88;52.75;102005.84;5006384;28;118226;-70
2021/06/24 09:04:31;;;;;;;8.68;5.47;;;;;;;19.88;53.05;102001.31;5008414;28;124107;-69
2021/06/24 09:07:09;;;;;;;8.70;5.28;;;;;;;19.89;52.83;102008.44;5000378;28;124086;-69
2021/06/24 09:09:39;;;;;;;9.52;5.30;;;;;;;19.92;52.96;102013.59;5009560;28;120018;-69
2021/06/24 09:12:10;;;;;;;8.38;5.20;;;;;;;19.94;53.13;102014.34;5003221;28;119327;-69
2021/06/24 09:14:38;;;;;;;8.20;5.32;;;;;;;19.96;53.02;102020.50;5019374;28;124766;-68
2021/06/24 09:17:06;;;;;;;7.38;5.10;;;;;;;19.97;53.11;102016.84;5020501;28;123911;-67
2021/06/24 09:19:36;;;;;;;8.80;5.20;;;;;;;19.98;52.77;102015.88;5005099;28;119154;-67
2021/06/24 09:22:12;;;;;;;9.35;5.63;;;;;;;19.96;52.66;102020.50;5005924;28;119948;-68
2021/06/24 09:24:48;;;;;;;7.90;4.97;;;;;;;19.98;52.48;102020.38;5005035;28;124463;-68
2021/06/24 09:27:19;;;;;;;8.60;5.25;;;;;;;19.98;52.77;102007.81;5007959;28;123320;-67
2021/06/24 09:29:50;;;;;;;7.55;5.07;;;;;;;20.02;52.75;102012.03;5008923;28;119458;-67
2021/06/24 09:32:33;;;;;;;6.63;4.60;;;;;;;20.05;52.72;102012.78;5013967;28;119402;-68
2021/06/24 09:35:04;;;;;;;7.50;4.80;;;;;;;20.07;52.87;102016.25;5003998;28;123954;-69
2021/06/24 09:38:02;;;;;;;7.40;4.60;;;;;;;20.10;52.83;102016.03;5002707;28;124660;-67
2021/06/24 09:40:37;;;;;;;7.47;4.75;;;;;;;20.13;52.77;102021.22;5004960;28;120912;-68
2021/06/24 09:43:05;;;;;;;8.60;4.57;;;;;;;20.14;52.17;102014.88;5003356;28;119971;-68
2021/06/24 09:45:33;;;;;;;9.05;4.35;;;;;;;20.14;52.37;102017.56;4999345;28;124285;-68
2021/06/24 09:48:08;;;;;;;9.38;4.82;;;;;;;20.15;52.32;102013.91;4999323;28;124261;-68
2021/06/24 09:50:36;;;;;;;6.88;4.75;;;;;;;20.20;52.56;102006.38;5001966;28;119817;-68
2021/06/24 09:53:10;;;;;;;6.72;4.32;;;;;;;20.26;52.58;102005.97;5002449;28;119509;-68
2021/06/24 09:55:39;;;;;;;7.10;4.57;;;;;;;20.34;52.51;102013.50;5014163;28;124336;-68
2021/06/24 09:58:14;;;;;;;7.63;4.50;;;;;;;20.37;51.96;102008.78;5017704;28;123853;-68
2021/06/24 10:00:49;;;;;;;7.75;4.90;;;;;;;20.39;52.08;102011.38;5006627;28;119640;-68
2021/06/24 10:03:17;;;;;;;9.07;4.53;;;;;;;20.40;52.09;102008.59;5006576;28;118181;-70
2021/06/24 10:05:46;;;;;;;6.00;4.43;;;;;;;20.42;51.50;102000.41;5002768;28;123994;-70
2021/06/24 10:08:13;;;;;;;5.80;4.38;;;;;;;20.42;51.51;102005.81;5002426;28;124264;-68
2021/06/24 10:10:43;;;;;;;8.07;4.68;;;;;;;20.42;51.62;102017.41;4999734;28;118353;-68
2021/06/24 10:13:11;;;;;;;8.07;4.45;;;;;;;20.43;51.55;102002.97;5000560;28;119461;-67
2021/06/24 10:15:39;;;;;;;7.65;4.90;;;;;;;20.43;51.26;102012.88;5012830;28;124893;-68
2021/06/24 10:18:06;;;;;;;7.55;4.80;;;;;;;20.42;51.37;102012.03;5002662;28;124645;-67
2021/06/24 10:20:33;;;;;;;7.95;4.80;;;;;;;20.47;51.46;102005.47;5016797;28;120043;-69
2021/06/24 10:23:07;;;;;;;9.10;5.35;;;;;;;20.48;51.44;102004.53;5008031;28;119255;-68
2021/06/24 10:25:37;;;;;;;10.45;5.63;;;;;;;20.52;51.65;102000.66;5000487;28;124516;-67
2021/06/24 10:28:05;;;;;;;7.18;5.22;;;;;;;20.56;51.63;102007.53;4996355;28;124179;-67
2021/06/24 10:30:39;;;;;;;6.97;4.47;;;;;;;20.58;51.17;102000.22;4999091;28;121090;-68
2021/06/24 10:33:12;;;;;;;6.55;4.88;;;;;;;20.60;51.02;101998.31;4996525;28;119897;-67
2021/06/24 10:35:42;;;;;;;9.82;5.50;;;;;;;20.62;51.11;101999.06;4995844;28;123916;-70
2021/06/24 10:38:12;;;;;;;9.88;5.57;;;;;;;20.64;50.99;101999.81;4996349;28;124252;-68
2021/06/24 10:40:44;;;;;;;7.70;5.20;;;;;;;20.65;51.05;101998.84;4991609;28;119633;-67
2021/06/24 10:43:14;;;;;;;7.13;5.28;;;;;;;20.65;50.87;102006.94;4993361;28;118786;-67
2021/06/24 10:45:43;;;;;;;8.63;5.68;;;;;;;20.64;50.83;102005.19;4990595;28;123322;-68
2021/06/24 10:48:30;;;;;;;10.73;5.15;;;;;;;20.63;50.82;101999.94;4998372;28;125229;-67
2021/06/24 10:51:03;;;;;;;9.43;5.93;;;;;;;20.64;51.06;102002.50;4996870;28;119358;-68
2021/06/24 10:53:33;;;;;;;8.43;5.25;;;;;;;20.68;51.07;101995.97;5001319;28;119061;-69
2021/06/24 10:56:00;;;;;;;7.35;5.10;;;;;;;20.70;51.02;102004.78;4997426;28;124295;-68
2021/06/24 10:58:30;;;;;;;8.75;5.53;;;;;;;20.71;50.74;101990.34;5004790;28;123497;-69
2021/06/24 11:01:02;;;;;;;9.75;5.57;;;;;;;20.73;50.86;101992.94;5005972;28;119192;-69
2021/06/24 11:03:32;;;;;;;6.72;5.68;;;;;;;20.75;51.26;101991.84;4991539;28;119053;-69
2021/06/24 11:06:13;;;;;;;9.23;5.90;;;;;;;20.77;51.31;101989.91;4993655;28;124150;-69
2021/06/24 11:08:42;;;;;;;6.97;5.43;;;;;;;20.82;51.53;101986.06;4997698;28;124318;-69
2021/06/24 11:11:13;;;;;;;7.80;5.22;;;;;;;20.82;51.30;101986.91;4998873;28;119738;-68
2021/06/24 11:13:41;;;;;;;9.95;6.05;;;;;;;20.85;51.56;101975.06;4983267;28;118252;-68
2021/06/24 11:16:13;;;;;;;8.77;6.07;;;;;;;20.87;51.58;101983.88;4997282;28;124339;-69
2021/06/24 11:18:40;;;;;;;7.65;5.38;;;;;;;20.92;51.46;101981.72;4999564;28;123914;-68
2021/06/24 11:21:17;;;;;;;9.43;5.70;;;;;;;20.95;51.33;101981.53;5000465;28;120454;-69
2021/06/24 11:23:44;;;;;;;10.18;5.55;;;;;;;21.02;51.78;101988.22;4987947;28;118905;-69
2021/06/24 11:26:17;;;;;;;6.55;5.32;;;;;;;21.09;51.09;101984.09;4994290;28;124132;-68
2021/06/24 11:28:52;;;;;;;11.27;5.82;;;;;;;21.14;51.00;101979.22;5000918;28;124155;-69